Portada
METAR-TAF:

METAR-TAF

Aeropuertos :

Aeropuerto de Granada

Granada, España

latitud: 37-11N, longitud: 003-47W, altitud: 567 m

Observación

El informe se hizo hace 34 minutos, a las 14:00 UTC
Viento 9 kt del oeste-noroeste, variando entre oeste-suroeste y norte-noroeste
Temperatura 28°C
Humedad 35%
Presión 1018 hPa
Visibilidad 10 km o más
Escasas nubes a una altura de 6000 ft

METAR: LEGR 251400Z 29009KT 250V330 9999 FEW060 28/11 Q1018

Hora: 16:34 (14:34 UTC)

Pronóstico

El informe se hizo hace 3 horas y 34 minutos, a las 11:00 UTC
Pronóstico válido del 25 a las 12 UTC al 26 a las 12 UTC
Viento 10 kt del oeste
Visibilidad 10 km o más
Nubes dispersas a una altura de 3000 ft
Evolucionando progresivamente
del 25 a las 20 UTC al 25 a las 23 UTC
Viento 2 kt con dirección variable

TAF: LEGR 251100Z 2512/2612 26010KT 9999 SCT030 TX29/2513Z TN13/2606Z BECMG 2520/2523 VRB02KT

Observaciones y pronósticos meteorológicos de más de 4000 aeropuertos (mensajes METAR y TAF).

Los puntos amarillos y rojos representan las estaciones disponibles.

Ponga el ratón en el punto deseado para ver el nombre de la estación.

Haga clic para ver las observaciones y los pronósticos meteorológicos.

Para cambiar el mapa : haga clic en los botones verdes con una cruz de color negro para hacer un zoom, en el botón verde con un guión para alejar o en las flechas verdes para mapas adyacentes.


METAR-TAF: